sensor_id;sensor_type;location;lat;lon;timestamp;temperature;humidity
61351;DHT22;47119;49.130;9.218;2023-07-22T00:01:29;19.93;67.77
61351;DHT22;47119;49.130;9.218;2023-07-22T00:03:56;19.90;67.55
61351;DHT22;47119;49.130;9.218;2023-07-22T00:06:28;19.78;68.22
61351;DHT22;47119;49.130;9.218;2023-07-22T00:08:57;19.68;68.25
61351;DHT22;47119;49.130;9.218;2023-07-22T00:11:24;19.62;68.22
61351;DHT22;47119;49.130;9.218;2023-07-22T00:13:51;19.69;68.53
61351;DHT22;47119;49.130;9.218;2023-07-22T00:16:20;19.75;68.30
61351;DHT22;47119;49.130;9.218;2023-07-22T00:18:52;19.79;67.95
61351;DHT22;47119;49.130;9.218;2023-07-22T00:21:24;19.72;67.89
61351;DHT22;47119;49.130;9.218;2023-07-22T00:23:53;19.82;67.71
61351;DHT22;47119;49.130;9.218;2023-07-22T00:26:22;19.78;67.67
61351;DHT22;47119;49.130;9.218;2023-07-22T00:28:59;19.75;67.86
61351;DHT22;47119;49.130;9.218;2023-07-22T00:31:26;19.69;67.63
61351;DHT22;47119;49.130;9.218;2023-07-22T00:33:55;19.96;67.04
61351;DHT22;47119;49.130;9.218;2023-07-22T00:36:27;19.98;66.80
61351;DHT22;47119;49.130;9.218;2023-07-22T00:38:56;19.78;67.64
61351;DHT22;47119;49.130;9.218;2023-07-22T00:41:27;19.77;67.70
61351;DHT22;47119;49.130;9.218;2023-07-22T00:43:56;19.77;67.44
61351;DHT22;47119;49.130;9.218;2023-07-22T00:46:23;19.78;67.23
61351;DHT22;47119;49.130;9.218;2023-07-22T00:48:53;19.69;67.34
61351;DHT22;47119;49.130;9.218;2023-07-22T00:51:24;19.38;68.63
61351;DHT22;47119;49.130;9.218;2023-07-22T00:53:56;19.38;68.75
61351;DHT22;47119;49.130;9.218;2023-07-22T00:56:32;19.39;68.73
61351;DHT22;47119;49.130;9.218;2023-07-22T00:59:04;19.32;68.90
61351;DHT22;47119;49.130;9.218;2023-07-22T01:01:37;19.41;68.45
61351;DHT22;47119;49.130;9.218;2023-07-22T01:04:04;19.44;69.07
61351;DHT22;47119;49.130;9.218;2023-07-22T01:06:34;19.43;69.05
61351;DHT22;47119;49.130;9.218;2023-07-22T01:09:05;19.55;68.52
61351;DHT22;47119;49.130;9.218;2023-07-22T01:11:38;19.67;68.12
61351;DHT22;47119;49.130;9.218;2023-07-22T01:14:09;19.65;68.21
61351;DHT22;47119;49.130;9.218;2023-07-22T01:16:39;19.51;68.80
61351;DHT22;47119;49.130;9.218;2023-07-22T01:19:09;19.30;69.24
61351;DHT22;47119;49.130;9.218;2023-07-22T01:21:42;19.24;69.17
61351;DHT22;47119;49.130;9.218;2023-07-22T01:24:11;19.51;68.73
61351;DHT22;47119;49.130;9.218;2023-07-22T01:26:40;19.55;68.45
61351;DHT22;47119;49.130;9.218;2023-07-22T01:29:09;19.59;68.34
61351;DHT22;47119;49.130;9.218;2023-07-22T01:31:38;19.57;68.30
61351;DHT22;47119;49.130;9.218;2023-07-22T01:34:08;19.58;68.39
61351;DHT22;47119;49.130;9.218;2023-07-22T01:36:37;19.53;68.27
61351;DHT22;47119;49.130;9.218;2023-07-22T01:39:07;19.47;68.42
61351;DHT22;47119;49.130;9.218;2023-07-22T01:41:35;19.59;67.89
61351;DHT22;47119;49.130;9.218;2023-07-22T01:44:04;19.54;67.89
61351;DHT22;47119;49.130;9.218;2023-07-22T01:46:32;19.69;67.47
61351;DHT22;47119;49.130;9.218;2023-07-22T01:49:04;19.55;68.23
61351;DHT22;47119;49.130;9.218;2023-07-22T01:51:37;19.37;68.63
61351;DHT22;47119;49.130;9.218;2023-07-22T01:54:06;19.30;68.87
61351;DHT22;47119;49.130;9.218;2023-07-22T01:56:35;19.44;68.39
61351;DHT22;47119;49.130;9.218;2023-07-22T01:59:08;19.37;68.56
61351;DHT22;47119;49.130;9.218;2023-07-22T02:01:37;19.43;68.40
61351;DHT22;47119;49.130;9.218;2023-07-22T02:04:05;19.51;68.43
61351;DHT22;47119;49.130;9.218;2023-07-22T02:06:35;19.50;68.38
61351;DHT22;47119;49.130;9.218;2023-07-22T02:09:04;19.51;68.00
61351;DHT22;47119;49.130;9.218;2023-07-22T02:11:37;19.53;68.07
61351;DHT22;47119;49.130;9.218;2023-07-22T02:14:07;19.64;67.74
61351;DHT22;47119;49.130;9.218;2023-07-22T02:16:34;19.71;67.28
61351;DHT22;47119;49.130;9.218;2023-07-22T02:19:05;19.71;67.05
61351;DHT22;47119;49.130;9.218;2023-07-22T02:21:39;19.55;67.34
61351;DHT22;47119;49.130;9.218;2023-07-22T02:24:15;19.59;67.23
61351;DHT22;47119;49.130;9.218;2023-07-22T02:26:44;19.61;66.88
61351;DHT22;47119;49.130;9.218;2023-07-22T02:29:11;19.67;66.98
61351;DHT22;47119;49.130;9.218;2023-07-22T02:31:41;19.64;66.84
61351;DHT22;47119;49.130;9.218;2023-07-22T02:34:08;19.75;66.52
61351;DHT22;47119;49.130;9.218;2023-07-22T02:36:39;19.65;66.97
61351;DHT22;47119;49.130;9.218;2023-07-22T02:39:09;19.68;66.88
61351;DHT22;47119;49.130;9.218;2023-07-22T02:41:38;19.68;66.92
61351;DHT22;47119;49.130;9.218;2023-07-22T02:44:09;19.69;66.57
61351;DHT22;47119;49.130;9.218;2023-07-22T02:46:39;19.68;66.43
61351;DHT22;47119;49.130;9.218;2023-07-22T02:49:06;19.71;66.32
61351;DHT22;47119;49.130;9.218;2023-07-22T02:51:33;19.69;66.55
61351;DHT22;47119;49.130;9.218;2023-07-22T02:54:01;19.69;66.33
61351;DHT22;47119;49.130;9.218;2023-07-22T02:56:31;19.69;66.27
61351;DHT22;47119;49.130;9.218;2023-07-22T02:59:00;19.67;66.18
61351;DHT22;47119;49.130;9.218;2023-07-22T03:01:28;19.62;66.29
61351;DHT22;47119;49.130;9.218;2023-07-22T03:03:59;19.58;66.12
61351;DHT22;47119;49.130;9.218;2023-07-22T03:06:29;19.59;66.16
61351;DHT22;47119;49.130;9.218;2023-07-22T03:08:56;19.58;66.02
61351;DHT22;47119;49.130;9.218;2023-07-22T03:11:26;19.65;65.86
61351;DHT22;47119;49.130;9.218;2023-07-22T03:13:55;19.58;65.87
61351;DHT22;47119;49.130;9.218;2023-07-22T03:16:23;19.57;66.38
61351;DHT22;47119;49.130;9.218;2023-07-22T03:18:51;19.57;65.94
61351;DHT22;47119;49.130;9.218;2023-07-22T03:21:18;19.53;65.93
61351;DHT22;47119;49.130;9.218;2023-07-22T03:23:45;19.54;65.94
61351;DHT22;47119;49.130;9.218;2023-07-22T03:26:12;19.54;65.91
61351;DHT22;47119;49.130;9.218;2023-07-22T03:28:41;19.50;66.12
61351;DHT22;47119;49.130;9.218;2023-07-22T03:31:10;19.48;66.11
61351;DHT22;47119;49.130;9.218;2023-07-22T03:33:37;19.50;66.05
61351;DHT22;47119;49.130;9.218;2023-07-22T03:36:13;19.44;66.61
61351;DHT22;47119;49.130;9.218;2023-07-22T03:38:40;19.39;66.30
61351;DHT22;47119;49.130;9.218;2023-07-22T03:41:12;19.47;66.28
61351;DHT22;47119;49.130;9.218;2023-07-22T03:43:39;19.48;66.30
61351;DHT22;47119;49.130;9.218;2023-07-22T03:46:05;19.58;66.24
61351;DHT22;47119;49.130;9.218;2023-07-22T03:48:35;19.30;66.85
61351;DHT22;47119;49.130;9.218;2023-07-22T03:51:07;19.39;66.67
61351;DHT22;47119;49.130;9.218;2023-07-22T03:53:38;19.39;66.61
61351;DHT22;47119;49.130;9.218;2023-07-22T03:56:05;19.44;66.65
61351;DHT22;47119;49.130;9.218;2023-07-22T03:58:32;19.50;66.26
61351;DHT22;47119;49.130;9.218;2023-07-22T04:01:01;19.47;66.28
61351;DHT22;47119;49.130;9.218;2023-07-22T04:03:30;19.48;66.27
61351;DHT22;47119;49.130;9.218;2023-07-22T04:05:57;19.47;66.41
61351;DHT22;47119;49.130;9.218;2023-07-22T04:08:24;19.47;66.17
61351;DHT22;47119;49.130;9.218;2023-07-22T04:10:53;19.35;66.47
61351;DHT22;47119;49.130;9.218;2023-07-22T04:13:25;19.41;66.36
61351;DHT22;47119;49.130;9.218;2023-07-22T04:15:55;19.46;66.53
61351;DHT22;47119;49.130;9.218;2023-07-22T04:18:27;19.28;66.57
61351;DHT22;47119;49.130;9.218;2023-07-22T04:21:00;19.27;66.88
61351;DHT22;47119;49.130;9.218;2023-07-22T04:23:27;19.37;66.38
61351;DHT22;47119;49.130;9.218;2023-07-22T04:25:58;19.35;66.44
61351;DHT22;47119;49.130;9.218;2023-07-22T04:28:27;19.37;66.52
61351;DHT22;47119;49.130;9.218;2023-07-22T04:30:55;19.21;67.06
61351;DHT22;47119;49.130;9.218;2023-07-22T04:33:26;19.21;66.87
61351;DHT22;47119;49.130;9.218;2023-07-22T04:35:58;19.17;67.18
61351;DHT22;47119;49.130;9.218;2023-07-22T04:38:26;19.20;66.90
61351;DHT22;47119;49.130;9.218;2023-07-22T04:40:53;19.27;66.77
61351;DHT22;47119;49.130;9.218;2023-07-22T04:43:24;19.34;66.58
61351;DHT22;47119;49.130;9.218;2023-07-22T04:45:53;19.32;66.87
61351;DHT22;47119;49.130;9.218;2023-07-22T04:48:23;19.24;66.78
61351;DHT22;47119;49.130;9.218;2023-07-22T04:50:53;19.35;66.46
61351;DHT22;47119;49.130;9.218;2023-07-22T04:53:21;19.31;66.79
61351;DHT22;47119;49.130;9.218;2023-07-22T04:55:53;19.38;66.78
61351;DHT22;47119;49.130;9.218;2023-07-22T04:58:24;19.41;66.32
61351;DHT22;47119;49.130;9.218;2023-07-22T05:00:51;19.47;66.19
61351;DHT22;47119;49.130;9.218;2023-07-22T05:03:20;19.37;66.43
61351;DHT22;47119;49.130;9.218;2023-07-22T05:05:50;19.46;66.51
61351;DHT22;47119;49.130;9.218;2023-07-22T05:08:17;19.50;66.86
61351;DHT22;47119;49.130;9.218;2023-07-22T05:10:47;19.46;66.07
61351;DHT22;47119;49.130;9.218;2023-07-22T05:13:17;19.44;66.25
61351;DHT22;47119;49.130;9.218;2023-07-22T05:15:45;19.51;66.40
61351;DHT22;47119;49.130;9.218;2023-07-22T05:18:16;19.43;66.31
61351;DHT22;47119;49.130;9.218;2023-07-22T05:20:45;19.41;66.42
61351;DHT22;47119;49.130;9.218;2023-07-22T05:23:15;19.53;66.00
61351;DHT22;47119;49.130;9.218;2023-07-22T05:25:50;19.64;66.08
61351;DHT22;47119;49.130;9.218;2023-07-22T05:28:18;19.64;65.70
61351;DHT22;47119;49.130;9.218;2023-07-22T05:30:47;19.68;65.69
61351;DHT22;47119;49.130;9.218;2023-07-22T05:33:14;19.67;65.90
61351;DHT22;47119;49.130;9.218;2023-07-22T05:35:43;19.57;65.88
61351;DHT22;47119;49.130;9.218;2023-07-22T05:38:10;19.54;66.07
61351;DHT22;47119;49.130;9.218;2023-07-22T05:40:40;19.67;65.88
61351;DHT22;47119;49.130;9.218;2023-07-22T05:43:09;19.62;65.78
61351;DHT22;47119;49.130;9.218;2023-07-22T05:45:41;19.64;65.68
61351;DHT22;47119;49.130;9.218;2023-07-22T05:48:11;19.65;65.82
61351;DHT22;47119;49.130;9.218;2023-07-22T05:50:41;19.67;65.61
61351;DHT22;47119;49.130;9.218;2023-07-22T05:53:11;19.71;65.30
61351;DHT22;47119;49.130;9.218;2023-07-22T05:55:41;19.65;65.20
61351;DHT22;47119;49.130;9.218;2023-07-22T05:58:15;19.67;65.54
61351;DHT22;47119;49.130;9.218;2023-07-22T06:00:45;19.69;65.39
61351;DHT22;47119;49.130;9.218;2023-07-22T06:03:13;19.74;65.30
61351;DHT22;47119;49.130;9.218;2023-07-22T06:05:41;19.98;64.96
61351;DHT22;47119;49.130;9.218;2023-07-22T06:08:10;19.98;65.04
61351;DHT22;47119;49.130;9.218;2023-07-22T06:10:40;19.82;65.68
61351;DHT22;47119;49.130;9.218;2023-07-22T06:13:09;19.77;66.07
61351;DHT22;47119;49.130;9.218;2023-07-22T06:15:36;19.79;65.76
61351;DHT22;47119;49.130;9.218;2023-07-22T06:18:03;19.85;65.56
61351;DHT22;47119;49.130;9.218;2023-07-22T06:20:37;19.79;64.96
61351;DHT22;47119;49.130;9.218;2023-07-22T06:23:07;19.81;65.26
61351;DHT22;47119;49.130;9.218;2023-07-22T06:25:47;20.00;65.07
61351;DHT22;47119;49.130;9.218;2023-07-22T06:28:14;20.17;64.67
61351;DHT22;47119;49.130;9.218;2023-07-22T06:30:43;20.17;64.40
61351;DHT22;47119;49.130;9.218;2023-07-22T06:33:10;20.15;64.40
61351;DHT22;47119;49.130;9.218;2023-07-22T06:35:43;20.20;64.91
61351;DHT22;47119;49.130;9.218;2023-07-22T06:38:10;20.19;64.82
61351;DHT22;47119;49.130;9.218;2023-07-22T06:40:37;20.32;64.74
61351;DHT22;47119;49.130;9.218;2023-07-22T06:43:04;20.22;64.85
61351;DHT22;47119;49.130;9.218;2023-07-22T06:45:32;20.26;64.61
61351;DHT22;47119;49.130;9.218;2023-07-22T06:47:59;20.22;64.81
61351;DHT22;47119;49.130;9.218;2023-07-22T06:50:26;20.20;65.15
61351;DHT22;47119;49.130;9.218;2023-07-22T06:52:57;20.37;64.67
61351;DHT22;47119;49.130;9.218;2023-07-22T06:55:26;20.26;65.37
61351;DHT22;47119;49.130;9.218;2023-07-22T06:57:55;20.40;64.93
61351;DHT22;47119;49.130;9.218;2023-07-22T07:00:27;20.39;64.79
61351;DHT22;47119;49.130;9.218;2023-07-22T07:02:56;20.32;65.30
61351;DHT22;47119;49.130;9.218;2023-07-22T07:05:28;20.39;65.18
61351;DHT22;47119;49.130;9.218;2023-07-22T07:07:58;20.47;65.04
61351;DHT22;47119;49.130;9.218;2023-07-22T07:10:27;20.37;65.04
61351;DHT22;47119;49.130;9.218;2023-07-22T07:12:57;20.39;65.58
61351;DHT22;47119;49.130;9.218;2023-07-22T07:15:29;20.40;65.34
61351;DHT22;47119;49.130;9.218;2023-07-22T07:17:58;20.48;65.35
61351;DHT22;47119;49.130;9.218;2023-07-22T07:20:27;20.46;65.17
61351;DHT22;47119;49.130;9.218;2023-07-22T07:22:54;20.56;65.37
61351;DHT22;47119;49.130;9.218;2023-07-22T07:25:23;20.64;65.16
61351;DHT22;47119;49.130;9.218;2023-07-22T07:27:52;20.57;65.26
61351;DHT22;47119;49.130;9.218;2023-07-22T07:30:22;20.56;65.10
61351;DHT22;47119;49.130;9.218;2023-07-22T07:32:53;20.60;65.27
61351;DHT22;47119;49.130;9.218;2023-07-22T07:35:20;20.64;65.00
61351;DHT22;47119;49.130;9.218;2023-07-22T07:37:47;20.57;64.93
61351;DHT22;47119;49.130;9.218;2023-07-22T07:40:14;20.61;65.07
61351;DHT22;47119;49.130;9.218;2023-07-22T07:42:43;20.66;65.13
61351;DHT22;47119;49.130;9.218;2023-07-22T07:45:10;20.68;64.92
61351;DHT22;47119;49.130;9.218;2023-07-22T07:47:37;20.71;65.08
61351;DHT22;47119;49.130;9.218;2023-07-22T07:50:05;20.70;64.96
61351;DHT22;47119;49.130;9.218;2023-07-22T07:52:35;20.74;65.22
61351;DHT22;47119;49.130;9.218;2023-07-22T07:55:05;20.71;65.08
61351;DHT22;47119;49.130;9.218;2023-07-22T07:57:32;20.77;64.92
61351;DHT22;47119;49.130;9.218;2023-07-22T08:00:04;20.75;64.45
61351;DHT22;47119;49.130;9.218;2023-07-22T08:02:36;20.73;64.78
61351;DHT22;47119;49.130;9.218;2023-07-22T08:05:04;20.75;64.23
61351;DHT22;47119;49.130;9.218;2023-07-22T08:07:34;20.78;63.78
61351;DHT22;47119;49.130;9.218;2023-07-22T08:10:04;20.80;63.86
61351;DHT22;47119;49.130;9.218;2023-07-22T08:12:35;20.78;63.84
61351;DHT22;47119;49.130;9.218;2023-07-22T08:15:07;20.74;63.57
61351;DHT22;47119;49.130;9.218;2023-07-22T08:17:37;20.71;63.89
61351;DHT22;47119;49.130;9.218;2023-07-22T08:20:05;20.75;63.60
61351;DHT22;47119;49.130;9.218;2023-07-22T08:22:33;20.77;63.06
61351;DHT22;47119;49.130;9.218;2023-07-22T08:25:03;20.80;63.00
61351;DHT22;47119;49.130;9.218;2023-07-22T08:27:33;20.83;63.11
61351;DHT22;47119;49.130;9.218;2023-07-22T08:30:04;20.81;63.36
61351;DHT22;47119;49.130;9.218;2023-07-22T08:32:34;20.83;63.57
61351;DHT22;47119;49.130;9.218;2023-07-22T08:35:04;20.85;63.33
61351;DHT22;47119;49.130;9.218;2023-07-22T08:41:13;20.88;63.06
61351;DHT22;47119;49.130;9.218;2023-07-22T08:44:14;20.90;63.24
61351;DHT22;47119;49.130;9.218;2023-07-22T08:47:10;20.88;62.97
61351;DHT22;47119;49.130;9.218;2023-07-22T08:49:49;20.92;62.66
61351;DHT22;47119;49.130;9.218;2023-07-22T08:52:19;20.91;62.61
61351;DHT22;47119;49.130;9.218;2023-07-22T08:54:49;20.92;62.82
61351;DHT22;47119;49.130;9.218;2023-07-22T08:57:20;20.91;63.14
61351;DHT22;47119;49.130;9.218;2023-07-22T08:59:53;20.83;61.91
61351;DHT22;47119;49.130;9.218;2023-07-22T09:02:24;20.91;62.36
61351;DHT22;47119;49.130;9.218;2023-07-22T09:04:51;20.95;62.40
61351;DHT22;47119;49.130;9.218;2023-07-22T09:40:17;21.02;62.12
61351;DHT22;47119;49.130;9.218;2023-07-22T09:43:11;21.01;62.45
61351;DHT22;47119;49.130;9.218;2023-07-22T09:45:39;21.01;62.65
61351;DHT22;47119;49.130;9.218;2023-07-22T09:48:08;21.04;63.22
61351;DHT22;47119;49.130;9.218;2023-07-22T09:50:43;20.99;62.65
61351;DHT22;47119;49.130;9.218;2023-07-22T09:57:22;21.06;62.12
61351;DHT22;47119;49.130;9.218;2023-07-22T09:59:54;21.08;63.40
61351;DHT22;47119;49.130;9.218;2023-07-22T10:02:22;21.09;61.44
61351;DHT22;47119;49.130;9.218;2023-07-22T10:04:58;21.01;62.06
61351;DHT22;47119;49.130;9.218;2023-07-22T10:07:30;21.08;60.89
61351;DHT22;47119;49.130;9.218;2023-07-22T10:10:10;21.11;60.85
61351;DHT22;47119;49.130;9.218;2023-07-22T10:12:46;21.05;61.21
61351;DHT22;47119;49.130;9.218;2023-07-22T10:15:14;21.08;61.53
61351;DHT22;47119;49.130;9.218;2023-07-22T10:18:19;21.09;61.48
61351;DHT22;47119;49.130;9.218;2023-07-22T10:20:51;21.08;61.06
61351;DHT22;47119;49.130;9.218;2023-07-22T10:23:21;21.11;61.09
61351;DHT22;47119;49.130;9.218;2023-07-22T10:25:53;21.12;60.85
61351;DHT22;47119;49.130;9.218;2023-07-22T10:28:54;21.12;59.82
61351;DHT22;47119;49.130;9.218;2023-07-22T10:31:30;21.15;59.10
61351;DHT22;47119;49.130;9.218;2023-07-22T10:34:00;21.08;59.48
61351;DHT22;47119;49.130;9.218;2023-07-22T10:36:30;21.11;59.82
61351;DHT22;47119;49.130;9.218;2023-07-22T10:39:02;21.08;60.57
61351;DHT22;47119;49.130;9.218;2023-07-22T10:42:26;21.12;60.74
61351;DHT22;47119;49.130;9.218;2023-07-22T10:45:00;21.14;60.49
61351;DHT22;47119;49.130;9.218;2023-07-22T10:48:00;21.09;60.18
61351;DHT22;47119;49.130;9.218;2023-07-22T10:50:46;21.18;57.85
61351;DHT22;47119;49.130;9.218;2023-07-22T10:53:22;21.16;57.51
61351;DHT22;47119;49.130;9.218;2023-07-22T10:56:06;21.19;58.99
61351;DHT22;47119;49.130;9.218;2023-07-22T10:59:00;21.19;58.61
61351;DHT22;47119;49.130;9.218;2023-07-22T11:01:57;21.19;58.36
61351;DHT22;47119;49.130;9.218;2023-07-22T11:25:07;21.18;59.79
61351;DHT22;47119;49.130;9.218;2023-07-22T11:27:35;21.22;59.47
61351;DHT22;47119;49.130;9.218;2023-07-22T11:30:03;21.19;58.13
61351;DHT22;47119;49.130;9.218;2023-07-22T11:32:32;21.25;57.81
61351;DHT22;47119;49.130;9.218;2023-07-22T11:35:02;21.26;57.71
61351;DHT22;47119;49.130;9.218;2023-07-22T11:37:29;21.26;58.41
61351;DHT22;47119;49.130;9.218;2023-07-22T11:40:01;21.22;57.55
61351;DHT22;47119;49.130;9.218;2023-07-22T11:42:33;21.25;57.19
61351;DHT22;47119;49.130;9.218;2023-07-22T11:45:01;21.26;57.92
61351;DHT22;47119;49.130;9.218;2023-07-22T11:47:29;21.22;59.75
61351;DHT22;47119;49.130;9.218;2023-07-22T11:49:58;21.21;59.87
61351;DHT22;47119;49.130;9.218;2023-07-22T11:52:25;21.25;58.46
61351;DHT22;47119;49.130;9.218;2023-07-22T11:54:53;21.26;57.57
61351;DHT22;47119;49.130;9.218;2023-07-22T11:57:21;21.26;58.16
61351;DHT22;47119;49.130;9.218;2023-07-22T11:59:56;21.26;58.09
61351;DHT22;47119;49.130;9.218;2023-07-22T12:02:25;21.26;58.19
61351;DHT22;47119;49.130;9.218;2023-07-22T12:04:56;21.25;58.70
61351;DHT22;47119;49.130;9.218;2023-07-22T12:07:26;21.26;58.94
61351;DHT22;47119;49.130;9.218;2023-07-22T12:09:56;21.24;59.06
61351;DHT22;47119;49.130;9.218;2023-07-22T12:12:31;21.19;59.95
61351;DHT22;47119;49.130;9.218;2023-07-22T12:15:03;21.19;60.81
61351;DHT22;47119;49.130;9.218;2023-07-22T12:17:50;21.24;59.26
61351;DHT22;47119;49.130;9.218;2023-07-22T12:20:23;21.24;59.63
61351;DHT22;47119;49.130;9.218;2023-07-22T12:22:52;21.31;57.39
61351;DHT22;47119;49.130;9.218;2023-07-22T12:25:29;21.32;58.56
61351;DHT22;47119;49.130;9.218;2023-07-22T12:28:05;21.26;59.46
61351;DHT22;47119;49.130;9.218;2023-07-22T12:30:34;21.32;58.32
61351;DHT22;47119;49.130;9.218;2023-07-22T12:33:02;21.39;57.02
61351;DHT22;47119;49.130;9.218;2023-07-22T12:35:35;21.36;56.43
61351;DHT22;47119;49.130;9.218;2023-07-22T12:38:06;21.35;55.64
61351;DHT22;47119;49.130;9.218;2023-07-22T12:40:38;21.34;58.50
61351;DHT22;47119;49.130;9.218;2023-07-22T12:43:11;21.29;57.85
61351;DHT22;47119;49.130;9.218;2023-07-22T12:45:39;21.38;55.85
61351;DHT22;47119;49.130;9.218;2023-07-22T12:48:09;21.38;56.46
61351;DHT22;47119;49.130;9.218;2023-07-22T12:50:39;21.39;56.14
61351;DHT22;47119;49.130;9.218;2023-07-22T12:53:06;21.38;56.71
61351;DHT22;47119;49.130;9.218;2023-07-22T12:55:34;21.39;57.23
61351;DHT22;47119;49.130;9.218;2023-07-22T12:58:04;21.43;56.48
61351;DHT22;47119;49.130;9.218;2023-07-22T13:00:31;21.42;56.31
61351;DHT22;47119;49.130;9.218;2023-07-22T13:02:59;21.35;56.87
61351;DHT22;47119;49.130;9.218;2023-07-22T13:05:27;21.41;56.65
61351;DHT22;47119;49.130;9.218;2023-07-22T13:07:54;21.38;55.82
61351;DHT22;47119;49.130;9.218;2023-07-22T13:10:22;21.46;55.69
61351;DHT22;47119;49.130;9.218;2023-07-22T13:12:50;21.46;55.29
61351;DHT22;47119;49.130;9.218;2023-07-22T13:15:21;21.47;55.63
61351;DHT22;47119;49.130;9.218;2023-07-22T13:17:48;21.43;56.19
61351;DHT22;47119;49.130;9.218;2023-07-22T13:20:20;21.46;55.72
61351;DHT22;47119;49.130;9.218;2023-07-22T13:22:52;21.41;57.57
61351;DHT22;47119;49.130;9.218;2023-07-22T13:25:19;21.45;56.61
61351;DHT22;47119;49.130;9.218;2023-07-22T13:27:49;21.34;58.22
61351;DHT22;47119;49.130;9.218;2023-07-22T13:30:33;21.52;55.14
61351;DHT22;47119;49.130;9.218;2023-07-22T13:33:07;21.53;55.90
61351;DHT22;47119;49.130;9.218;2023-07-22T13:35:43;21.45;55.96
61351;DHT22;47119;49.130;9.218;2023-07-22T13:38:11;21.47;55.94
61351;DHT22;47119;49.130;9.218;2023-07-22T13:43:20;21.56;55.63
61351;DHT22;47119;49.130;9.218;2023-07-22T13:45:47;21.57;55.07
61351;DHT22;47119;49.130;9.218;2023-07-22T13:48:17;21.49;55.67
61351;DHT22;47119;49.130;9.218;2023-07-22T13:50:45;21.47;57.74
61351;DHT22;47119;49.130;9.218;2023-07-22T13:53:40;21.62;53.62
61351;DHT22;47119;49.130;9.218;2023-07-22T13:56:07;21.57;53.92
61351;DHT22;47119;49.130;9.218;2023-07-22T13:58:34;21.57;54.49
61351;DHT22;47119;49.130;9.218;2023-07-22T14:01:01;21.57;53.29
61351;DHT22;47119;49.130;9.218;2023-07-22T14:03:29;21.60;53.49
61351;DHT22;47119;49.130;9.218;2023-07-22T14:06:00;21.59;54.39
61351;DHT22;47119;49.130;9.218;2023-07-22T14:08:27;21.60;53.90
61351;DHT22;47119;49.130;9.218;2023-07-22T14:10:54;21.60;53.63
61351;DHT22;47119;49.130;9.218;2023-07-22T14:13:21;21.55;56.53
61351;DHT22;47119;49.130;9.218;2023-07-22T14:15:49;21.62;53.74
61351;DHT22;47119;49.130;9.218;2023-07-22T14:18:16;21.63;54.70
61351;DHT22;47119;49.130;9.218;2023-07-22T14:20:43;21.60;54.03
61351;DHT22;47119;49.130;9.218;2023-07-22T14:23:14;21.55;53.82
61351;DHT22;47119;49.130;9.218;2023-07-22T14:25:48;21.52;55.35
61351;DHT22;47119;49.130;9.218;2023-07-22T14:28:15;21.53;55.19
61351;DHT22;47119;49.130;9.218;2023-07-22T14:30:48;21.55;55.04
61351;DHT22;47119;49.130;9.218;2023-07-22T14:33:18;21.65;53.37
61351;DHT22;47119;49.130;9.218;2023-07-22T14:35:45;21.69;53.55
61351;DHT22;47119;49.130;9.218;2023-07-22T14:38:13;21.65;52.46
61351;DHT22;47119;49.130;9.218;2023-07-22T14:40:41;21.65;54.47
61351;DHT22;47119;49.130;9.218;2023-07-22T14:43:08;21.67;53.01
61351;DHT22;47119;49.130;9.218;2023-07-22T14:45:35;21.66;52.39
61351;DHT22;47119;49.130;9.218;2023-07-22T14:48:02;21.62;54.47
61351;DHT22;47119;49.130;9.218;2023-07-22T14:50:30;21.60;53.34
61351;DHT22;47119;49.130;9.218;2023-07-22T14:52:57;21.65;53.36
61351;DHT22;47119;49.130;9.218;2023-07-22T14:55:32;21.66;53.70
61351;DHT22;47119;49.130;9.218;2023-07-22T14:57:59;21.57;53.77
61351;DHT22;47119;49.130;9.218;2023-07-22T15:00:27;21.56;54.32
61351;DHT22;47119;49.130;9.218;2023-07-22T15:02:54;21.57;54.72
61351;DHT22;47119;49.130;9.218;2023-07-22T15:05:24;21.62;53.57
61351;DHT22;47119;49.130;9.218;2023-07-22T15:07:51;21.57;54.38
61351;DHT22;47119;49.130;9.218;2023-07-22T15:10:21;21.65;52.52
61351;DHT22;47119;49.130;9.218;2023-07-22T15:13:02;21.62;53.86
61351;DHT22;47119;49.130;9.218;2023-07-22T15:15:53;21.62;54.43
61351;DHT22;47119;49.130;9.218;2023-07-22T15:21:37;21.62;53.56
61351;DHT22;47119;49.130;9.218;2023-07-22T15:24:07;21.62;54.00
61351;DHT22;47119;49.130;9.218;2023-07-22T15:26:34;21.65;53.20
61351;DHT22;47119;49.130;9.218;2023-07-22T15:29:05;21.69;53.10
61351;DHT22;47119;49.130;9.218;2023-07-22T15:31:32;21.69;51.23
61351;DHT22;47119;49.130;9.218;2023-07-22T15:33:59;21.60;52.41
61351;DHT22;47119;49.130;9.218;2023-07-22T15:36:26;21.57;53.20
61351;DHT22;47119;49.130;9.218;2023-07-22T15:38:53;21.59;53.06
61351;DHT22;47119;49.130;9.218;2023-07-22T15:41:23;21.57;53.38
61351;DHT22;47119;49.130;9.218;2023-07-22T15:43:50;21.60;53.81
61351;DHT22;47119;49.130;9.218;2023-07-22T15:46:22;21.60;53.12
61351;DHT22;47119;49.130;9.218;2023-07-22T15:48:49;21.69;52.36
61351;DHT22;47119;49.130;9.218;2023-07-22T15:51:19;21.60;54.41
61351;DHT22;47119;49.130;9.218;2023-07-22T15:53:47;21.66;52.05
61351;DHT22;47119;49.130;9.218;2023-07-22T15:56:21;21.59;52.76
61351;DHT22;47119;49.130;9.218;2023-07-22T15:58:56;21.67;52.69
61351;DHT22;47119;49.130;9.218;2023-07-22T16:24:46;21.70;52.78
61351;DHT22;47119;49.130;9.218;2023-07-22T16:27:16;21.70;53.19
61351;DHT22;47119;49.130;9.218;2023-07-22T16:29:43;21.70;52.46
61351;DHT22;47119;49.130;9.218;2023-07-22T16:32:10;21.74;51.46
61351;DHT22;47119;49.130;9.218;2023-07-22T16:34:38;21.69;52.68
61351;DHT22;47119;49.130;9.218;2023-07-22T16:41:00;21.60;53.28
61351;DHT22;47119;49.130;9.218;2023-07-22T16:43:27;21.56;53.84
61351;DHT22;47119;49.130;9.218;2023-07-22T16:45:54;21.52;55.02
61351;DHT22;47119;49.130;9.218;2023-07-22T16:48:21;21.49;55.46
61351;DHT22;47119;49.130;9.218;2023-07-22T16:50:48;21.55;54.70
61351;DHT22;47119;49.130;9.218;2023-07-22T16:53:21;21.52;57.21
61351;DHT22;47119;49.130;9.218;2023-07-22T16:55:48;21.60;53.77
61351;DHT22;47119;49.130;9.218;2023-07-22T16:58:16;21.59;54.68
61351;DHT22;47119;49.130;9.218;2023-07-22T17:00:48;21.57;55.34
61351;DHT22;47119;49.130;9.218;2023-07-22T17:07:55;21.62;55.30
61351;DHT22;47119;49.130;9.218;2023-07-22T17:11:46;21.62;53.14
61351;DHT22;47119;49.130;9.218;2023-07-22T17:14:16;21.65;55.50
61351;DHT22;47119;49.130;9.218;2023-07-22T17:16:52;21.67;52.75
61351;DHT22;47119;49.130;9.218;2023-07-22T17:20:10;21.60;54.76
61351;DHT22;47119;49.130;9.218;2023-07-22T17:22:47;21.57;54.05
61351;DHT22;47119;49.130;9.218;2023-07-22T17:25:18;21.60;52.89
61351;DHT22;47119;49.130;9.218;2023-07-22T17:27:47;21.59;54.43
61351;DHT22;47119;49.130;9.218;2023-07-22T17:30:19;21.55;54.88
61351;DHT22;47119;49.130;9.218;2023-07-22T17:32:47;21.55;54.51